createdAt,value
2017-02-24T00:00:42.273Z,0
2017-02-24T00:01:51.993Z,0
2017-02-24T00:03:01.877Z,0
2017-02-24T00:04:12.053Z,0
2017-02-24T00:05:21.378Z,0
2017-02-24T00:06:30.709Z,0
2017-02-24T00:07:40.430Z,0
2017-02-24T00:08:50.326Z,0
2017-02-24T00:10:00.049Z,0
2017-02-24T00:11:09.778Z,0
2017-02-24T00:12:19.526Z,0
2017-02-24T00:13:28.851Z,0
2017-02-24T00:14:38.625Z,0
2017-02-24T00:15:48.763Z,0
2017-02-24T00:16:57.674Z,0
2017-02-24T00:18:06.582Z,0
2017-02-24T00:19:15.494Z,0
2017-02-24T00:20:25.085Z,0
2017-02-24T00:21:34.047Z,0
2017-02-24T00:22:42.983Z,0
2017-02-24T00:23:53.132Z,0
2017-02-24T00:25:02.883Z,0
2017-02-24T00:26:12.349Z,0
2017-02-24T00:27:22.073Z,0
2017-02-24T00:28:32.212Z,0
2017-02-24T00:29:41.540Z,0
2017-02-24T00:30:51.703Z,0
2017-02-24T00:32:01.689Z,0
2017-02-24T00:33:10.648Z,0
2017-02-24T00:34:20.390Z,0
2017-02-24T00:35:29.703Z,0
2017-02-24T00:36:38.624Z,0
2017-02-24T00:37:47.696Z,0
2017-02-24T00:38:57.435Z,0
2017-02-24T00:40:06.777Z,0
2017-02-24T00:41:16.497Z,0
2017-02-24T00:42:25.410Z,0
2017-02-24T00:43:35.134Z,0
2017-02-24T00:44:44.475Z,0
2017-02-24T00:45:53.789Z,0
2017-02-24T00:47:03.119Z,0
2017-02-24T00:48:12.051Z,0
2017-02-24T00:49:21.496Z,0
2017-02-24T00:50:31.639Z,0
2017-02-24T00:51:40.556Z,0
2017-02-24T00:52:49.875Z,0
2017-02-24T00:54:00.040Z,0
2017-02-24T00:55:10.346Z,0
2017-02-24T00:56:20.086Z,0
2017-02-24T00:57:29.005Z,0
2017-02-24T00:58:38.337Z,0
2017-02-24T00:59:48.463Z,0
2017-02-24T01:00:58.062Z,0
2017-02-24T01:02:07.381Z,0
2017-02-24T01:03:17.124Z,0
2017-02-24T01:04:26.846Z,0
2017-02-24T01:05:35.768Z,0
2017-02-24T01:06:45.315Z,0
2017-02-24T01:07:54.261Z,0
2017-02-24T01:09:03.213Z,0
2017-02-24T01:10:13.370Z,0
2017-02-24T01:11:22.699Z,0
2017-02-24T01:12:31.828Z,0
2017-02-24T01:13:41.149Z,0
2017-02-24T01:14:50.469Z,0
2017-02-24T01:15:59.386Z,0
2017-02-24T01:17:09.120Z,0
2017-02-24T01:18:18.188Z,0
2017-02-24T01:19:28.741Z,0
2017-02-24T01:20:38.883Z,0
2017-02-24T01:21:49.026Z,0
2017-02-24T01:22:58.358Z,0
2017-02-24T01:24:08.502Z,0
2017-02-24T01:25:18.238Z,0
2017-02-24T01:26:27.146Z,0
2017-02-24T01:27:36.079Z,0
2017-02-24T01:28:45.390Z,0
2017-02-24T01:29:55.577Z,0
2017-02-24T01:31:04.895Z,0
2017-02-24T01:32:14.219Z,0
2017-02-24T01:33:23.136Z,0
2017-02-24T01:34:32.863Z,0
2017-02-24T01:35:42.647Z,0
2017-02-24T01:36:52.795Z,0
2017-02-24T01:38:02.156Z,0
2017-02-24T01:39:11.886Z,0
2017-02-24T01:40:21.202Z,0
2017-02-24T01:41:30.461Z,0
2017-02-24T01:42:39.378Z,0
2017-02-24T01:43:49.105Z,0
2017-02-24T01:44:59.651Z,0
2017-02-24T01:46:09.792Z,0
2017-02-24T01:47:19.699Z,0
2017-02-24T01:48:29.014Z,0
2017-02-24T01:49:38.742Z,0
2017-02-24T01:50:48.897Z,0
2017-02-24T01:51:58.216Z,0
2017-02-24T01:53:07.602Z,0
2017-02-24T01:54:16.944Z,0
2017-02-24T01:55:26.688Z,0
2017-02-24T01:56:36.464Z,0
2017-02-24T01:57:45.393Z,0
2017-02-24T01:58:55.110Z,0
2017-02-24T02:00:05.262Z,0
2017-02-24T02:01:14.584Z,0
2017-02-24T02:02:23.906Z,0
2017-02-24T02:03:33.233Z,0
2017-02-24T02:04:42.579Z,0
2017-02-24T02:05:51.512Z,0
2017-02-24T02:07:00.852Z,0
2017-02-24T02:08:10.171Z,0
2017-02-24T02:09:19.086Z,0
2017-02-24T02:10:28.984Z,0
2017-02-24T02:11:38.324Z,0
2017-02-24T02:12:48.057Z,0
2017-02-24T02:13:57.383Z,0
2017-02-24T02:15:07.124Z,0
2017-02-24T02:16:16.500Z,0
2017-02-24T02:17:25.833Z,0
2017-02-24T02:18:34.738Z,0
2017-02-24T02:19:44.475Z,0
2017-02-24T02:20:53.799Z,0
2017-02-24T02:22:03.195Z,0
2017-02-24T02:23:12.932Z,0
2017-02-24T02:24:21.898Z,0
2017-02-24T02:25:32.038Z,0
2017-02-24T02:26:40.952Z,0
2017-02-24T02:27:51.109Z,0
2017-02-24T02:29:00.840Z,0
2017-02-24T02:30:10.599Z,0
2017-02-24T02:31:20.342Z,0
2017-02-24T02:32:29.685Z,0
2017-02-24T02:33:40.382Z,0
2017-02-24T02:34:50.925Z,0
2017-02-24T02:36:00.649Z,0
2017-02-24T02:37:09.978Z,0
2017-02-24T02:38:19.300Z,0
2017-02-24T02:39:29.481Z,0
2017-02-24T02:40:39.202Z,0
2017-02-24T02:41:48.124Z,0
2017-02-24T02:42:57.846Z,0
2017-02-24T02:44:07.980Z,0
2017-02-24T02:45:17.899Z,0
2017-02-24T02:46:28.050Z,0
2017-02-24T02:47:36.988Z,0
2017-02-24T02:48:46.714Z,0
2017-02-24T02:49:56.050Z,0
2017-02-24T02:51:05.220Z,0
2017-02-24T02:52:14.541Z,0
2017-02-24T02:53:23.866Z,0
2017-02-24T02:54:33.202Z,0
2017-02-24T02:55:42.522Z,0
2017-02-24T02:56:52.358Z,0
2017-02-24T02:58:01.704Z,0
2017-02-24T02:59:12.255Z,0
2017-02-24T03:00:21.978Z,0
2017-02-24T03:01:32.138Z,0
2017-02-24T03:02:41.937Z,0
2017-02-24T03:03:51.256Z,0
2017-02-24T03:05:00.178Z,0
2017-02-24T03:06:09.528Z,0
2017-02-24T03:07:18.844Z,0
2017-02-24T03:08:29.883Z,0
2017-02-24T03:09:39.622Z,0
2017-02-24T03:10:48.534Z,0
2017-02-24T03:11:57.869Z,0
2017-02-24T03:13:07.211Z,0
2017-02-24T03:14:17.501Z,0
2017-02-24T03:15:27.250Z,0
2017-02-24T03:16:37.803Z,0
2017-02-24T03:17:46.706Z,0
2017-02-24T03:18:56.456Z,0
2017-02-24T03:20:06.740Z,0
2017-02-24T03:21:15.659Z,0
2017-02-24T03:22:25.801Z,0
2017-02-24T03:23:34.723Z,0
2017-02-24T03:24:44.464Z,0
2017-02-24T03:25:54.397Z,0
2017-02-24T03:27:04.529Z,0
2017-02-24T03:28:13.446Z,0
2017-02-24T03:29:22.766Z,0
2017-02-24T03:30:32.079Z,0
2017-02-24T03:31:42.698Z,0
2017-02-24T03:32:52.447Z,0
2017-02-24T03:34:01.784Z,0
2017-02-24T03:35:11.919Z,0
2017-02-24T03:36:22.067Z,0
2017-02-24T03:37:32.094Z,0
2017-02-24T03:38:41.031Z,0
2017-02-24T03:39:49.944Z,0
2017-02-24T03:40:59.289Z,0
2017-02-24T03:42:09.042Z,0
2017-02-24T03:43:18.506Z,0
2017-02-24T03:44:28.242Z,0
2017-02-24T03:45:38.383Z,0
2017-02-24T03:46:48.958Z,0
2017-02-24T03:47:58.289Z,0
2017-02-24T03:49:08.190Z,0
2017-02-24T03:50:17.538Z,0
2017-02-24T03:51:27.679Z,0
2017-02-24T03:52:37.005Z,0
2017-02-24T03:53:46.776Z,0
2017-02-24T03:54:56.269Z,0
2017-02-24T03:56:06.404Z,0
2017-02-24T03:57:16.128Z,0
2017-02-24T03:58:25.043Z,0
2017-02-24T03:59:34.765Z,0
2017-02-24T04:00:44.755Z,0
2017-02-24T04:01:54.908Z,0
2017-02-24T04:03:04.629Z,0
2017-02-24T04:04:13.958Z,0
2017-02-24T04:05:23.288Z,0
2017-02-24T04:06:33.721Z,0
2017-02-24T04:07:43.451Z,0
2017-02-24T04:08:52.803Z,0
2017-02-24T04:10:02.539Z,0
2017-02-24T04:11:11.896Z,0
2017-02-24T04:12:22.295Z,0
2017-02-24T04:13:32.018Z,0
2017-02-24T04:14:40.925Z,0
2017-02-24T04:15:50.248Z,0
2017-02-24T04:16:59.572Z,0
2017-02-24T04:18:09.764Z,0
2017-02-24T04:19:19.100Z,0
2017-02-24T04:20:28.416Z,0
2017-02-24T04:21:37.345Z,0
2017-02-24T04:22:47.533Z,0
2017-02-24T04:23:57.101Z,0
2017-02-24T04:25:06.838Z,0
2017-02-24T04:26:16.996Z,0
2017-02-24T04:27:27.138Z,0
2017-02-24T04:28:37.277Z,0
2017-02-24T04:29:47.172Z,0
2017-02-24T04:30:57.337Z,0
2017-02-24T04:32:07.078Z,0
2017-02-24T04:33:17.262Z,0
2017-02-24T04:34:27.431Z,0
2017-02-24T04:35:36.917Z,0
2017-02-24T04:36:45.841Z,0
2017-02-24T04:37:55.159Z,0
2017-02-24T04:39:04.884Z,0
2017-02-24T04:40:14.208Z,0
2017-02-24T04:41:23.374Z,0
2017-02-24T04:42:32.691Z,0
2017-02-24T04:43:41.615Z,0
2017-02-24T04:44:51.345Z,0
2017-02-24T04:46:00.674Z,0
2017-02-24T04:47:10.412Z,0
2017-02-24T04:48:19.736Z,0
2017-02-24T04:49:29.463Z,0
2017-02-24T04:50:38.377Z,0
2017-02-24T04:51:48.121Z,0
2017-02-24T04:52:57.994Z,0
2017-02-24T04:54:07.307Z,0
2017-02-24T04:55:16.627Z,0
2017-02-24T04:56:26.362Z,0
2017-02-24T04:57:36.107Z,0
2017-02-24T04:58:45.492Z,0
2017-02-24T04:59:54.409Z,0
2017-02-24T05:01:04.555Z,0
2017-02-24T05:02:14.278Z,0
2017-02-24T05:03:24.411Z,0
2017-02-24T05:04:33.800Z,0
2017-02-24T05:05:43.962Z,0
2017-02-24T05:06:54.097Z,0
2017-02-24T05:08:04.253Z,0
2017-02-24T05:09:14.414Z,0
2017-02-24T05:10:23.436Z,0
2017-02-24T05:11:33.162Z,0
2017-02-24T05:12:42.491Z,0
2017-02-24T05:13:51.836Z,0
2017-02-24T05:15:00.748Z,0
2017-02-24T05:16:10.124Z,0
2017-02-24T05:17:19.467Z,0
2017-02-24T05:18:28.783Z,0
2017-02-24T05:19:38.127Z,0
2017-02-24T05:20:47.050Z,0
2017-02-24T05:21:56.884Z,0
2017-02-24T05:23:06.208Z,0
2017-02-24T05:24:15.129Z,0
2017-02-24T05:25:24.462Z,0
2017-02-24T05:26:33.780Z,0
2017-02-24T05:27:42.952Z,0
2017-02-24T05:28:51.864Z,0
2017-02-24T05:30:00.800Z,0
2017-02-24T05:31:10.121Z,0
2017-02-24T05:32:19.036Z,0
2017-02-24T05:33:29.241Z,0
2017-02-24T05:34:38.971Z,0
2017-02-24T05:35:47.891Z,0
2017-02-24T05:36:57.218Z,0
2017-02-24T05:38:06.126Z,0
2017-02-24T05:39:16.263Z,0
2017-02-24T05:40:25.183Z,0
2017-02-24T05:41:34.940Z,0
2017-02-24T05:42:44.255Z,0
2017-02-24T05:43:53.623Z,0
2017-02-24T05:45:03.101Z,0
2017-02-24T05:46:12.435Z,0
2017-02-24T05:47:22.204Z,0
2017-02-24T05:48:31.169Z,0
2017-02-24T05:49:40.504Z,0
2017-02-24T05:50:50.389Z,0
2017-02-24T05:52:00.143Z,0
2017-02-24T05:53:09.458Z,0
2017-02-24T05:54:18.776Z,0
2017-02-24T05:55:28.508Z,0
2017-02-24T05:56:37.603Z,0
2017-02-24T05:57:47.336Z,0
2017-02-24T05:58:56.246Z,0
2017-02-24T06:00:06.394Z,0
2017-02-24T06:01:15.718Z,0
2017-02-24T06:02:25.557Z,0
2017-02-24T06:03:34.880Z,0
2017-02-24T06:04:44.653Z,0
2017-02-24T06:05:53.589Z,0
2017-02-24T06:07:02.924Z,0
2017-02-24T06:08:12.900Z,0
2017-02-24T06:09:22.633Z,0
2017-02-24T06:10:31.554Z,0
2017-02-24T06:11:41.290Z,0
2017-02-24T06:12:51.064Z,0
2017-02-24T06:14:00.651Z,0
2017-02-24T06:15:09.965Z,0
2017-02-24T06:16:19.454Z,0
2017-02-24T06:17:29.217Z,0
2017-02-24T06:18:38.546Z,0
2017-02-24T06:19:49.417Z,0
2017-02-24T06:20:58.749Z,0
2017-02-24T06:22:08.082Z,0
2017-02-24T06:23:17.007Z,5
2017-02-24T06:24:27.149Z,5
2017-02-24T06:25:36.538Z,5
2017-02-24T06:26:45.507Z,5
2017-02-24T06:27:54.852Z,5
2017-02-24T06:29:04.581Z,5
2017-02-24T06:30:14.315Z,5
2017-02-24T06:31:24.053Z,5
2017-02-24T06:32:33.435Z,5
2017-02-24T06:33:42.365Z,5
2017-02-24T06:34:51.503Z,10
2017-02-24T06:36:00.821Z,5
2017-02-24T06:37:09.770Z,5
2017-02-24T06:38:19.111Z,5
2017-02-24T06:39:28.434Z,5
2017-02-24T06:40:37.790Z,10
2017-02-24T06:41:47.512Z,10
2017-02-24T06:42:57.251Z,10
2017-02-24T06:44:06.988Z,15
2017-02-24T06:45:16.731Z,15
2017-02-24T06:46:26.047Z,20
2017-02-24T06:47:35.769Z,20
2017-02-24T06:48:44.686Z,20
2017-02-24T06:49:54.418Z,25
2017-02-24T06:51:04.562Z,25
2017-02-24T06:52:13.916Z,25
2017-02-24T06:53:22.833Z,25
2017-02-24T06:54:31.748Z,25
2017-02-24T06:55:41.477Z,30
2017-02-24T06:56:50.553Z,25
2017-02-24T06:57:59.476Z,25
2017-02-24T06:59:08.393Z,35
2017-02-24T07:00:17.720Z,40
2017-02-24T07:01:27.465Z,35
2017-02-24T07:02:36.952Z,35
2017-02-24T07:03:46.309Z,45
2017-02-24T07:04:56.050Z,50
2017-02-24T07:06:05.374Z,55
2017-02-24T07:07:15.118Z,55
2017-02-24T07:08:24.222Z,60
2017-02-24T07:09:33.973Z,60
2017-02-24T07:10:42.895Z,65
2017-02-24T07:11:52.237Z,65
2017-02-24T07:13:01.555Z,65
2017-02-24T07:14:11.451Z,70
2017-02-24T07:15:20.782Z,70
2017-02-24T07:16:30.111Z,65
2017-02-24T07:17:39.490Z,70
2017-02-24T07:18:49.666Z,70
2017-02-24T07:19:59.488Z,70
2017-02-24T07:21:08.838Z,75
2017-02-24T07:22:18.990Z,75
2017-02-24T07:23:28.341Z,75
2017-02-24T07:24:37.661Z,75
2017-02-24T07:25:46.673Z,80
2017-02-24T07:26:56.011Z,80
2017-02-24T07:28:05.370Z,85
2017-02-24T07:29:14.283Z,90
2017-02-24T07:30:23.208Z,90
2017-02-24T07:31:32.692Z,100
2017-02-24T07:32:41.604Z,100
2017-02-24T07:33:50.930Z,105
2017-02-24T07:35:01.086Z,110
2017-02-24T07:36:10.014Z,120
2017-02-24T07:37:19.172Z,120
2017-02-24T07:38:28.905Z,125
2017-02-24T07:39:38.630Z,130
2017-02-24T07:40:47.973Z,130
2017-02-24T07:41:57.307Z,135
2017-02-24T07:43:07.339Z,135
2017-02-24T07:44:17.080Z,140
2017-02-24T07:45:26.396Z,140
2017-02-24T07:46:35.738Z,140
2017-02-24T07:47:44.666Z,145
2017-02-24T07:48:54.029Z,150
2017-02-24T07:50:02.955Z,155
2017-02-24T07:51:12.688Z,155
2017-02-24T07:52:21.612Z,155
2017-02-24T07:53:31.341Z,160
2017-02-24T07:54:40.715Z,160
2017-02-24T07:55:50.043Z,160
2017-02-24T07:56:58.975Z,155
2017-02-24T07:58:08.717Z,150
2017-02-24T07:59:18.083Z,140
2017-02-24T08:00:27.237Z,140
2017-02-24T08:01:36.573Z,135
2017-02-24T08:02:45.891Z,130
2017-02-24T08:03:55.228Z,130
2017-02-24T08:05:04.555Z,130
2017-02-24T08:06:14.043Z,125
2017-02-24T08:07:23.799Z,120
2017-02-24T08:08:32.730Z,120
2017-02-24T08:09:42.053Z,120
2017-02-24T08:10:51.389Z,125
2017-02-24T08:12:00.764Z,125
2017-02-24T08:13:09.680Z,125
2017-02-24T08:14:18.994Z,130
2017-02-24T08:15:27.921Z,130
2017-02-24T08:16:36.859Z,135
2017-02-24T08:17:46.949Z,135
2017-02-24T08:18:56.277Z,140
2017-02-24T08:20:06.853Z,140
2017-02-24T08:21:16.178Z,145
2017-02-24T08:22:25.118Z,150
2017-02-24T08:23:34.200Z,150
2017-02-24T08:24:44.356Z,155
2017-02-24T08:25:53.683Z,155
2017-02-24T08:27:02.599Z,160
2017-02-24T08:28:11.939Z,160
2017-02-24T08:29:21.935Z,165
2017-02-24T08:30:32.075Z,165
2017-02-24T08:31:41.811Z,165
2017-02-24T08:32:51.548Z,165
2017-02-24T08:34:00.907Z,165
2017-02-24T08:35:10.302Z,165
2017-02-24T08:36:19.631Z,170
2017-02-24T08:37:28.541Z,170
2017-02-24T08:38:37.858Z,170
2017-02-24T08:39:47.592Z,170
2017-02-24T08:40:56.756Z,165
2017-02-24T08:42:06.071Z,170
2017-02-24T08:43:15.805Z,170
2017-02-24T08:44:25.138Z,170
2017-02-24T08:45:34.872Z,175
2017-02-24T08:46:44.518Z,170
2017-02-24T08:47:54.259Z,170
2017-02-24T08:49:03.999Z,170
2017-02-24T08:50:12.925Z,170
2017-02-24T08:51:22.671Z,170
2017-02-24T08:52:32.751Z,170
2017-02-24T08:53:42.091Z,175
2017-02-24T08:54:51.432Z,175
2017-02-24T08:56:01.196Z,180
2017-02-24T08:57:10.512Z,180
2017-02-24T08:58:21.103Z,190
2017-02-24T08:59:30.451Z,195
2017-02-24T09:00:39.381Z,200
2017-02-24T09:01:49.524Z,205
2017-02-24T09:02:58.440Z,215
2017-02-24T09:04:08.242Z,235
2017-02-24T09:05:17.165Z,255
2017-02-24T09:06:26.484Z,290
2017-02-24T09:07:35.828Z,315
2017-02-24T09:08:45.575Z,295
2017-02-24T09:09:55.408Z,255
2017-02-24T09:11:05.144Z,205
2017-02-24T09:12:14.508Z,205
2017-02-24T09:13:24.266Z,245
2017-02-24T09:14:33.192Z,275
2017-02-24T09:15:43.267Z,285
2017-02-24T09:16:52.999Z,255
2017-02-24T09:18:02.317Z,260
2017-02-24T09:19:12.097Z,205
2017-02-24T09:20:21.025Z,210
2017-02-24T09:21:30.493Z,200
2017-02-24T09:22:39.819Z,185
2017-02-24T09:23:49.570Z,185
2017-02-24T09:24:58.893Z,175
2017-02-24T09:26:08.226Z,185
2017-02-24T09:27:17.291Z,210
2017-02-24T09:28:26.616Z,240
2017-02-24T09:29:35.544Z,255
2017-02-24T09:30:44.899Z,235
2017-02-24T09:31:53.842Z,240
2017-02-24T09:33:03.437Z,250
2017-02-24T09:34:13.183Z,260
2017-02-24T09:35:22.516Z,300
2017-02-24T09:36:31.831Z,275
2017-02-24T09:37:41.166Z,285
2017-02-24T09:38:50.141Z,190
2017-02-24T09:39:59.872Z,185
2017-02-24T09:41:09.237Z,230
2017-02-24T09:42:18.156Z,255
2017-02-24T09:43:27.900Z,290
2017-02-24T09:44:37.273Z,305
2017-02-24T09:45:46.615Z,325
2017-02-24T09:46:55.959Z,200
2017-02-24T09:48:05.689Z,175
2017-02-24T09:49:15.009Z,180
2017-02-24T09:50:24.627Z,225
2017-02-24T09:51:33.569Z,245
2017-02-24T09:52:42.493Z,235
2017-02-24T09:53:51.822Z,230
2017-02-24T09:55:00.768Z,225
2017-02-24T09:56:09.845Z,200
2017-02-24T09:57:19.992Z,210
2017-02-24T09:58:28.947Z,235
2017-02-24T09:59:38.299Z,270
2017-02-24T10:00:48.074Z,275
2017-02-24T10:01:57.550Z,290
2017-02-24T10:03:06.873Z,290
2017-02-24T10:04:16.598Z,315
2017-02-24T10:05:26.336Z,260
2017-02-24T10:06:35.257Z,290
2017-02-24T10:07:45.096Z,305
2017-02-24T10:08:54.437Z,370
2017-02-24T10:10:03.778Z,310
2017-02-24T10:11:13.134Z,360
2017-02-24T10:12:22.456Z,320
2017-02-24T10:13:31.910Z,275
2017-02-24T10:14:41.258Z,280
2017-02-24T10:15:50.189Z,280
2017-02-24T10:16:59.920Z,325
2017-02-24T10:18:08.846Z,345
2017-02-24T10:19:18.721Z,360
2017-02-24T10:20:28.461Z,420
2017-02-24T10:21:38.199Z,420
2017-02-24T10:22:47.546Z,350
2017-02-24T10:23:57.314Z,275
2017-02-24T10:25:06.893Z,295
2017-02-24T10:26:16.235Z,320
2017-02-24T10:27:25.574Z,290
2017-02-24T10:28:34.925Z,285
2017-02-24T10:29:44.251Z,305
2017-02-24T10:30:54.090Z,305
2017-02-24T10:32:03.839Z,280
2017-02-24T10:33:13.166Z,300
2017-02-24T10:34:22.904Z,285
2017-02-24T10:35:33.059Z,300
2017-02-24T10:36:42.790Z,290
2017-02-24T10:37:52.111Z,295
2017-02-24T10:39:01.028Z,285
2017-02-24T10:40:10.404Z,290
2017-02-24T10:41:19.739Z,330
2017-02-24T10:42:29.250Z,350
2017-02-24T10:43:39.007Z,305
2017-02-24T10:44:48.747Z,230
2017-02-24T10:45:58.083Z,210
2017-02-24T10:47:07.010Z,215
2017-02-24T10:48:17.213Z,225
2017-02-24T10:49:26.585Z,270
2017-02-24T10:50:35.515Z,345
2017-02-24T10:51:45.260Z,375
2017-02-24T10:52:54.593Z,400
2017-02-24T10:54:03.785Z,410
2017-02-24T10:55:13.143Z,410
2017-02-24T10:56:22.476Z,430
2017-02-24T10:57:31.403Z,420
2017-02-24T10:58:40.753Z,375
2017-02-24T10:59:50.719Z,390
2017-02-24T11:01:00.043Z,405
2017-02-24T11:02:09.365Z,390
2017-02-24T11:03:19.110Z,285
2017-02-24T11:04:28.034Z,320
2017-02-24T11:05:37.653Z,340
2017-02-24T11:06:46.585Z,355
2017-02-24T11:07:55.921Z,395
2017-02-24T11:09:05.672Z,390
2017-02-24T11:10:15.018Z,340
2017-02-24T11:11:24.337Z,320
2017-02-24T11:12:33.263Z,260
2017-02-24T11:13:42.183Z,245
2017-02-24T11:14:51.503Z,230
2017-02-24T11:16:00.858Z,260
2017-02-24T11:17:10.360Z,260
2017-02-24T11:18:19.285Z,255
2017-02-24T11:19:29.435Z,245
2017-02-24T11:20:39.571Z,245
2017-02-24T11:21:48.906Z,240
2017-02-24T11:22:58.253Z,240
2017-02-24T11:24:07.582Z,240
2017-02-24T11:25:17.307Z,245
2017-02-24T11:26:26.248Z,245
2017-02-24T11:27:35.984Z,250
2017-02-24T11:28:44.908Z,255
2017-02-24T11:29:54.222Z,255
2017-02-24T11:31:04.001Z,255
2017-02-24T11:32:13.740Z,250
2017-02-24T11:33:22.649Z,245
2017-02-24T11:34:31.966Z,245
2017-02-24T11:35:41.294Z,245
2017-02-24T11:36:50.637Z,250
2017-02-24T11:38:00.399Z,250
2017-02-24T11:39:09.746Z,255
2017-02-24T11:40:19.069Z,265
2017-02-24T11:41:27.977Z,270
2017-02-24T11:42:37.153Z,290
2017-02-24T11:43:46.896Z,310
2017-02-24T11:44:55.816Z,320
2017-02-24T11:46:05.134Z,335
2017-02-24T11:47:15.283Z,330
2017-02-24T11:48:24.863Z,330
2017-02-24T11:49:33.790Z,320
2017-02-24T11:50:43.513Z,300
2017-02-24T11:51:53.259Z,285
2017-02-24T11:53:03.041Z,295
2017-02-24T11:54:12.824Z,320
2017-02-24T11:55:22.994Z,380
2017-02-24T11:56:32.314Z,405
2017-02-24T11:57:41.675Z,395
2017-02-24T11:58:50.618Z,395
2017-02-24T12:00:00.493Z,405
2017-02-24T12:01:10.669Z,405
2017-02-24T12:02:19.992Z,390
2017-02-24T12:03:29.316Z,360
2017-02-24T12:04:39.053Z,290
2017-02-24T12:05:48.761Z,270
2017-02-24T12:06:58.148Z,220
2017-02-24T12:08:07.479Z,210
2017-02-24T12:09:17.223Z,210
2017-02-24T12:10:26.564Z,265
2017-02-24T12:11:36.604Z,360
2017-02-24T12:12:46.749Z,600
2017-02-24T12:13:56.072Z,505
2017-02-24T12:15:05.396Z,510
2017-02-24T12:16:14.714Z,790
2017-02-24T12:17:24.222Z,655
2017-02-24T12:18:33.568Z,300
2017-02-24T12:19:43.341Z,585
2017-02-24T12:20:53.086Z,550
2017-02-24T12:22:02.838Z,690
2017-02-24T12:23:12.626Z,700
2017-02-24T12:24:21.948Z,710
2017-02-24T12:25:30.873Z,750
2017-02-24T12:26:40.197Z,975
2017-02-24T12:27:49.535Z,875
2017-02-24T12:28:59.006Z,645
2017-02-24T12:30:08.743Z,945
2017-02-24T12:31:19.305Z,1525
2017-02-24T12:32:29.040Z,560
2017-02-24T12:33:38.786Z,485
2017-02-24T12:34:47.861Z,945
2017-02-24T12:35:57.591Z,795
2017-02-24T12:37:07.341Z,710
2017-02-24T12:38:16.297Z,780
2017-02-24T12:39:25.629Z,545
2017-02-24T12:40:35.060Z,450
2017-02-24T12:41:44.804Z,635
2017-02-24T12:42:54.572Z,770
2017-02-24T12:44:03.926Z,735
2017-02-24T12:45:13.683Z,695
2017-02-24T12:46:23.995Z,775
2017-02-24T12:47:34.161Z,785
2017-02-24T12:48:43.498Z,885
2017-02-24T12:49:52.824Z,735
2017-02-24T12:51:02.986Z,720
2017-02-24T12:52:13.299Z,625
2017-02-24T12:53:23.447Z,320
2017-02-24T12:54:33.182Z,320
2017-02-24T12:55:42.516Z,345
2017-02-24T12:56:51.858Z,405
2017-02-24T12:58:00.846Z,415
2017-02-24T12:59:10.595Z,365
2017-02-24T13:00:19.520Z,355
2017-02-24T13:01:29.244Z,335
2017-02-24T13:02:38.593Z,340
2017-02-24T13:03:47.981Z,350
2017-02-24T13:04:56.935Z,410
2017-02-24T13:06:06.693Z,425
2017-02-24T13:07:16.426Z,355
2017-02-24T13:08:25.367Z,345
2017-02-24T13:09:34.337Z,490
2017-02-24T13:10:44.092Z,475
2017-02-24T13:11:53.012Z,570
2017-02-24T13:13:03.156Z,585
2017-02-24T13:14:12.074Z,610
2017-02-24T13:15:22.370Z,780
2017-02-24T13:16:31.292Z,850
2017-02-24T13:17:40.649Z,1140
2017-02-24T13:18:50.407Z,940
2017-02-24T13:19:59.347Z,950
2017-02-24T13:21:09.188Z,730
2017-02-24T13:22:18.533Z,1135
2017-02-24T13:23:27.869Z,1610
2017-02-24T13:24:36.789Z,1605
2017-02-24T13:25:45.716Z,650
2017-02-24T13:26:54.888Z,1030
2017-02-24T13:28:04.640Z,750
2017-02-24T13:29:13.988Z,315
2017-02-24T13:30:23.338Z,355
2017-02-24T13:31:33.079Z,315
2017-02-24T13:32:42.826Z,345
2017-02-24T13:33:51.772Z,350
2017-02-24T13:35:01.515Z,305
2017-02-24T13:36:11.656Z,240
2017-02-24T13:37:20.985Z,205
2017-02-24T13:38:31.251Z,180
2017-02-24T13:39:40.594Z,165
2017-02-24T13:40:50.341Z,155
2017-02-24T13:41:59.676Z,160
2017-02-24T13:43:09.412Z,165
2017-02-24T13:44:18.735Z,180
2017-02-24T13:45:28.467Z,215
2017-02-24T13:46:38.614Z,235
2017-02-24T13:47:47.950Z,250
2017-02-24T13:48:57.280Z,275
2017-02-24T13:50:06.767Z,345
2017-02-24T13:51:16.084Z,415
2017-02-24T13:52:24.999Z,425
2017-02-24T13:53:34.340Z,455
2017-02-24T13:54:44.100Z,480
2017-02-24T13:55:53.596Z,370
2017-02-24T13:57:02.940Z,345
2017-02-24T13:58:12.299Z,225
2017-02-24T13:59:22.861Z,140
2017-02-24T14:00:32.616Z,110
2017-02-24T14:01:41.687Z,80
2017-02-24T14:02:51.021Z,60
2017-02-24T14:04:00.784Z,45
2017-02-24T14:05:10.523Z,35
2017-02-24T14:06:19.852Z,30
2017-02-24T14:07:29.609Z,25
2017-02-24T14:08:39.361Z,30
2017-02-24T14:09:48.680Z,40
2017-02-24T14:10:58.426Z,50
2017-02-24T14:12:07.779Z,80
2017-02-24T14:13:16.838Z,115
2017-02-24T14:14:26.183Z,200
2017-02-24T14:15:35.502Z,305
2017-02-24T14:16:44.419Z,450
2017-02-24T14:17:53.758Z,1800
2017-02-24T14:19:03.163Z,2165
2017-02-24T14:20:12.516Z,2050
2017-02-24T14:21:22.262Z,1785
2017-02-24T14:22:31.604Z,1780
2017-02-24T14:23:40.529Z,1125
2017-02-24T14:24:50.552Z,905
2017-02-24T14:26:00.287Z,555
2017-02-24T14:27:09.626Z,745
2017-02-24T14:28:18.962Z,365
2017-02-24T14:29:28.712Z,1410
2017-02-24T14:30:38.702Z,1635
2017-02-24T14:31:47.619Z,1330
2017-02-24T14:32:57.357Z,1015
2017-02-24T14:34:07.502Z,835
2017-02-24T14:35:16.827Z,735
2017-02-24T14:36:26.361Z,655
2017-02-24T14:37:35.691Z,570
2017-02-24T14:38:45.027Z,580
2017-02-24T14:39:54.368Z,485
2017-02-24T14:41:03.712Z,440
2017-02-24T14:42:13.200Z,385
2017-02-24T14:43:22.541Z,320
2017-02-24T14:44:32.285Z,295
2017-02-24T14:45:41.205Z,290
2017-02-24T14:46:50.530Z,280
2017-02-24T14:48:00.734Z,265
2017-02-24T14:49:10.057Z,255
2017-02-24T14:50:19.402Z,225
2017-02-24T14:51:28.735Z,215
2017-02-24T14:52:38.513Z,210
2017-02-24T14:53:48.842Z,210
2017-02-24T14:54:57.769Z,210
2017-02-24T14:56:07.524Z,195
2017-02-24T14:57:16.866Z,195
2017-02-24T14:58:25.887Z,220
2017-02-24T14:59:35.357Z,295
2017-02-24T15:00:45.106Z,335
2017-02-24T15:01:54.840Z,780
2017-02-24T15:03:04.196Z,1130
2017-02-24T15:04:13.930Z,1000
2017-02-24T15:05:23.262Z,940
2017-02-24T15:06:33.019Z,795
2017-02-24T15:07:42.772Z,650
2017-02-24T15:08:51.691Z,800
2017-02-24T15:10:01.420Z,1270
2017-02-24T15:11:10.802Z,1100
2017-02-24T15:12:19.739Z,345
2017-02-24T15:13:28.651Z,200
2017-02-24T15:14:38.003Z,190
2017-02-24T15:15:46.944Z,200
2017-02-24T15:16:55.858Z,215
2017-02-24T15:18:05.192Z,190
2017-02-24T15:19:14.121Z,215
2017-02-24T15:20:23.483Z,190
2017-02-24T15:21:33.224Z,190
2017-02-24T15:22:42.570Z,180
2017-02-24T15:23:51.895Z,175
2017-02-24T15:25:00.818Z,180
2017-02-24T15:26:10.954Z,190
2017-02-24T15:27:20.708Z,520
2017-02-24T15:28:30.467Z,500
2017-02-24T15:29:39.378Z,285
2017-02-24T15:30:48.658Z,265
2017-02-24T15:31:57.996Z,420
2017-02-24T15:33:08.134Z,650
2017-02-24T15:34:17.059Z,745
2017-02-24T15:35:26.788Z,650
2017-02-24T15:36:36.271Z,530
2017-02-24T15:37:45.627Z,610
2017-02-24T15:38:54.972Z,520
2017-02-24T15:40:04.307Z,520
2017-02-24T15:41:13.655Z,585
2017-02-24T15:42:22.830Z,515
2017-02-24T15:43:31.755Z,500
2017-02-24T15:44:40.669Z,620
2017-02-24T15:45:50.002Z,690
2017-02-24T15:46:59.326Z,755
2017-02-24T15:48:08.825Z,420
2017-02-24T15:49:18.557Z,295
2017-02-24T15:50:27.906Z,275
2017-02-24T15:51:37.642Z,275
2017-02-24T15:52:46.974Z,290
2017-02-24T15:53:56.002Z,300
2017-02-24T15:55:05.739Z,280
2017-02-24T15:56:15.062Z,260
2017-02-24T15:57:24.001Z,250
2017-02-24T15:58:33.329Z,245
2017-02-24T15:59:42.403Z,225
2017-02-24T16:00:51.762Z,190
2017-02-24T16:02:01.489Z,145
2017-02-24T16:03:10.441Z,100
2017-02-24T16:04:19.374Z,60
2017-02-24T16:05:28.962Z,50
2017-02-24T16:06:38.684Z,50
2017-02-24T16:07:48.022Z,60
2017-02-24T16:08:57.806Z,55
2017-02-24T16:10:07.545Z,60
2017-02-24T16:11:17.166Z,85
2017-02-24T16:12:26.900Z,125
2017-02-24T16:13:35.812Z,110
2017-02-24T16:14:45.153Z,125
2017-02-24T16:15:54.510Z,125
2017-02-24T16:17:04.245Z,135
2017-02-24T16:18:13.166Z,135
2017-02-24T16:19:22.103Z,120
2017-02-24T16:20:31.437Z,105
2017-02-24T16:21:40.363Z,95
2017-02-24T16:22:49.689Z,90
2017-02-24T16:23:58.619Z,90
2017-02-24T16:25:07.539Z,85
2017-02-24T16:26:16.462Z,75